Time;durP1;ratioP1;P1;durP2;ratioP2;P2;SDS_P1;SDS_P2;PMS_P1;PMS_P2;Temp;Humidity;BMP_temperature;BMP_pressure;BME280_temperature;BME280_humidity;BME280_pressure;Samples;Min_cycle;Max_cycle;Signal;HPM_P1;HPM_P2
2022/03/10 00:01:03;;;;;;;52.10;32.70;;;;;;;-1.04;88.30;97511.64;107868;1273;38439;-73
2022/03/10 00:03:34;;;;;;;40.50;26.20;;;;;;;-1.05;88.39;97515.15;107820;1274;45530;-73
2022/03/10 00:06:05;;;;;;;34.00;23.70;;;;;;;-1.09;88.41;97520.45;107781;1274;45798;-73
2022/03/10 00:08:37;;;;;;;33.50;22.10;;;;;;;-1.11;88.19;97524.22;107742;1274;43844;-73
2022/03/10 00:11:09;;;;;;;33.70;21.00;;;;;;;-1.14;88.30;97530.37;107847;1274;64328;-73
2022/03/10 00:13:40;;;;;;;34.90;21.90;;;;;;;-1.13;88.31;97529.65;107821;1274;35060;-73
2022/03/10 00:16:11;;;;;;;34.00;21.70;;;;;;;-1.14;88.26;97535.29;107822;1273;38595;-73
2022/03/10 00:18:42;;;;;;;37.30;23.90;;;;;;;-1.15;88.58;97538.13;107729;1274;45443;-73
2022/03/10 00:21:14;;;;;;;34.50;23.60;;;;;;;-1.17;88.61;97540.62;107729;1274;42319;-73
2022/03/10 00:23:45;;;;;;;42.30;27.80;;;;;;;-1.16;88.78;97540.42;107830;1274;38615;-73
2022/03/10 00:26:16;;;;;;;39.00;25.50;;;;;;;-1.18;88.78;97542.34;107789;1273;74819;-74
2022/03/10 00:28:47;;;;;;;39.70;24.80;;;;;;;-1.20;88.97;97548.27;107838;1274;39011;-73
2022/03/10 00:31:19;;;;;;;38.90;23.80;;;;;;;-1.24;88.95;97547.19;107816;1273;34594;-73
2022/03/10 00:33:51;;;;;;;36.90;24.60;;;;;;;-1.28;88.98;97546.61;107826;1273;42904;-73
2022/03/10 00:36:22;;;;;;;37.70;24.70;;;;;;;-1.29;88.96;97552.23;107840;1273;43932;-73
2022/03/10 00:38:54;;;;;;;39.20;25.70;;;;;;;-1.31;89.02;97555.28;107846;1273;46871;-74
2022/03/10 00:41:25;;;;;;;35.90;23.40;;;;;;;-1.34;88.91;97558.45;107895;1273;31216;-73
2022/03/10 00:43:57;;;;;;;37.90;24.50;;;;;;;-1.37;88.97;97560.90;107843;1274;32273;-73
2022/03/10 00:46:28;;;;;;;42.00;24.50;;;;;;;-1.39;89.16;97569.56;107823;1274;45579;-73
2022/03/10 00:48:59;;;;;;;37.90;25.50;;;;;;;-1.40;89.12;97569.25;107826;1273;41214;-74
2022/03/10 00:51:30;;;;;;;36.60;23.80;;;;;;;-1.43;89.02;97572.60;107802;1273;42540;-74
2022/03/10 00:54:02;;;;;;;34.70;22.10;;;;;;;-1.45;88.88;97571.86;107811;1273;43562;-74
2022/03/10 00:56:33;;;;;;;36.00;23.30;;;;;;;-1.46;89.06;97572.04;107802;1273;43263;-73
2022/03/10 00:59:04;;;;;;;34.30;23.30;;;;;;;-1.47;89.04;97573.84;107786;1273;46208;-74
2022/03/10 01:01:35;;;;;;;32.30;22.70;;;;;;;-1.48;88.90;97572.61;107776;1273;54629;-73
2022/03/10 01:04:07;;;;;;;35.10;22.30;;;;;;;-1.49;89.13;97574.61;107734;1274;44978;-73
2022/03/10 01:06:39;;;;;;;33.60;23.40;;;;;;;-1.50;89.00;97568.60;107754;1274;40284;-73
2022/03/10 01:09:10;;;;;;;36.10;23.60;;;;;;;-1.51;89.04;97572.87;107826;1274;31133;-74
2022/03/10 01:11:41;;;;;;;34.30;22.60;;;;;;;-1.52;88.86;97572.81;107796;1274;43079;-74
2022/03/10 01:14:13;;;;;;;31.40;21.50;;;;;;;-1.53;88.94;97569.96;107806;1273;47950;-74
2022/03/10 01:16:44;;;;;;;34.70;21.70;;;;;;;-1.52;88.77;97571.84;107820;1273;34790;-74
2022/03/10 01:19:15;;;;;;;34.20;22.10;;;;;;;-1.55;88.81;97577.00;107769;1274;43261;-73
2022/03/10 01:21:46;;;;;;;33.00;22.20;;;;;;;-1.58;88.68;97580.50;107811;1274;37329;-73
2022/03/10 01:24:18;;;;;;;33.30;20.90;;;;;;;-1.59;88.62;97584.09;107786;1272;42487;-73
2022/03/10 01:26:49;;;;;;;31.80;20.50;;;;;;;-1.60;88.48;97585.43;107775;1274;37971;-74
2022/03/10 01:29:20;;;;;;;31.80;20.00;;;;;;;-1.61;88.47;97583.42;107796;1273;38874;-73
2022/03/10 01:31:52;;;;;;;29.90;20.80;;;;;;;-1.63;88.48;97584.04;107786;1273;39587;-73
2022/03/10 01:34:24;;;;;;;28.50;20.40;;;;;;;-1.64;88.35;97584.83;107717;1274;48936;-73
2022/03/10 01:36:56;;;;;;;29.70;19.40;;;;;;;-1.65;88.44;97585.63;107822;1273;46130;-74
2022/03/10 01:39:27;;;;;;;28.00;19.50;;;;;;;-1.68;88.38;97579.05;107822;1274;31831;-74
2022/03/10 01:41:58;;;;;;;32.00;20.70;;;;;;;-1.68;88.30;97584.29;107878;1274;30280;-74
2022/03/10 01:44:29;;;;;;;30.80;20.20;;;;;;;-1.67;88.26;97586.62;107756;1273;46640;-74
2022/03/10 01:47:01;;;;;;;30.00;20.80;;;;;;;-1.68;88.32;97585.81;107781;1274;47125;-74
2022/03/10 01:49:33;;;;;;;34.90;20.00;;;;;;;-1.71;88.22;97585.27;107794;1274;44859;-74
2022/03/10 01:52:05;;;;;;;28.90;19.40;;;;;;;-1.74;88.06;97589.30;107770;1273;44885;-74
2022/03/10 01:54:36;;;;;;;32.50;20.20;;;;;;;-1.75;88.10;97590.60;107811;1273;40682;-73
2022/03/10 01:57:08;;;;;;;34.10;20.70;;;;;;;-1.74;88.09;97593.61;107787;1273;41579;-74
2022/03/10 01:59:40;;;;;;;31.20;19.80;;;;;;;-1.72;88.28;97597.37;107817;1272;54347;-74
2022/03/10 02:02:11;;;;;;;27.40;19.30;;;;;;;-1.70;88.33;97599.16;107795;1271;42004;-73
2022/03/10 02:04:42;;;;;;;26.90;18.60;;;;;;;-1.69;88.41;97600.33;107793;1271;46320;-74
2022/03/10 02:12:48;;;;;;;26.60;16.90;;;;;;;-1.75;87.92;97600.64;107796;1273;39288;-73
2022/03/10 02:18:11;;;;;;;28.20;16.70;;;;;;;-1.77;87.71;97595.17;107804;1271;40590;-74
2022/03/10 02:20:42;;;;;;;26.10;17.40;;;;;;;-1.78;87.70;97595.80;106564;1273;1725939;-74
2022/03/10 02:23:14;;;;;;;26.90;17.20;;;;;;;-1.77;87.65;97597.97;107784;1273;44263;-74
2022/03/10 02:25:46;;;;;;;28.20;18.50;;;;;;;-1.78;87.84;97597.69;107827;1273;35280;-74
2022/03/10 02:28:17;;;;;;;26.70;17.80;;;;;;;-1.80;87.71;97607.94;107803;1273;42589;-73
2022/03/10 02:30:48;;;;;;;27.80;17.80;;;;;;;-1.82;87.61;97608.34;107801;1273;39520;-74
2022/03/10 02:33:19;;;;;;;25.20;17.40;;;;;;;-1.84;87.62;97607.60;107838;1272;32759;-74
2022/03/10 02:35:51;;;;;;;26.70;18.30;;;;;;;-1.87;87.48;97611.81;107790;1274;36581;-73
2022/03/10 02:38:21;;;;;;;24.50;16.20;;;;;;;-1.88;87.53;97614.95;107805;1274;27429;-74
2022/03/10 02:40:53;;;;;;;24.60;17.60;;;;;;;-1.90;87.50;97618.44;107808;1273;30534;-74
2022/03/10 02:43:25;;;;;;;25.50;17.10;;;;;;;-1.92;87.38;97623.11;107793;1273;43192;-74
2022/03/10 02:45:55;;;;;;;27.10;18.40;;;;;;;-1.94;87.49;97627.27;107863;1273;42007;-74
2022/03/10 02:48:26;;;;;;;31.10;18.80;;;;;;;-1.94;87.49;97627.48;107814;1274;32088;-74
2022/03/10 02:50:57;;;;;;;29.20;19.60;;;;;;;-1.95;87.43;97634.83;107846;1273;30945;-74
2022/03/10 02:53:31;;;;;;;25.10;17.20;;;;;;;-1.96;87.46;97640.00;107839;1273;37487;-74
2022/03/10 02:56:02;;;;;;;28.50;18.90;;;;;;;-1.97;87.44;97645.45;107821;1273;31275;-74
2022/03/10 02:58:34;;;;;;;26.70;18.30;;;;;;;-1.99;87.51;97649.42;107792;1273;37237;-74
2022/03/10 03:01:05;;;;;;;29.40;18.70;;;;;;;-2.01;87.50;97644.50;107791;1273;30664;-74
2022/03/10 03:03:36;;;;;;;27.60;18.90;;;;;;;-2.04;87.54;97656.61;107828;1274;30499;-74
2022/03/10 03:06:07;;;;;;;28.60;19.10;;;;;;;-2.05;87.21;97660.91;107798;1273;43447;-74
2022/03/10 03:08:38;;;;;;;26.50;18.40;;;;;;;-2.07;87.26;97659.05;107758;1273;73639;-74
2022/03/10 03:11:10;;;;;;;24.00;17.20;;;;;;;-2.08;87.36;97660.90;107779;1274;42058;-74
2022/03/10 03:13:41;;;;;;;29.00;17.50;;;;;;;-2.10;87.36;97662.70;107828;1273;31282;-73
2022/03/10 03:16:12;;;;;;;26.20;17.10;;;;;;;-2.12;87.32;97665.30;107803;1273;43944;-74
2022/03/10 03:18:43;;;;;;;25.70;17.60;;;;;;;-2.13;87.38;97672.05;107783;1274;43732;-73
2022/03/10 03:21:14;;;;;;;24.30;16.60;;;;;;;-2.13;87.44;97682.56;107742;1273;43117;-74
2022/03/10 03:23:45;;;;;;;21.10;15.70;;;;;;;-2.13;87.32;97688.25;107787;1274;48022;-74
2022/03/10 03:26:16;;;;;;;26.00;17.00;;;;;;;-2.15;87.11;97689.41;107761;1273;39382;-73
2022/03/10 03:28:47;;;;;;;25.20;16.50;;;;;;;-2.16;87.18;97694.02;107765;1273;41532;-74
2022/03/10 03:31:20;;;;;;;23.90;15.90;;;;;;;-2.18;87.12;97696.11;107765;1273;60694;-74
2022/03/10 03:33:51;;;;;;;22.70;16.50;;;;;;;-2.20;87.16;97697.08;107760;1274;40654;-74
2022/03/10 03:36:23;;;;;;;26.30;16.60;;;;;;;-2.23;87.07;97703.45;107778;1273;34716;-74
2022/03/10 03:38:56;;;;;;;22.20;15.00;;;;;;;-2.26;87.10;97709.33;107822;1273;43797;-73
2022/03/10 03:41:27;;;;;;;24.40;15.70;;;;;;;-2.28;87.07;97710.05;107835;1273;43900;-74
2022/03/10 03:43:58;;;;;;;24.50;16.10;;;;;;;-2.31;86.85;97712.28;107839;1273;45724;-74
2022/03/10 03:46:29;;;;;;;19.20;14.00;;;;;;;-2.35;86.84;97716.56;107874;1273;36337;-74
2022/03/10 03:48:59;;;;;;;18.50;12.40;;;;;;;-2.37;86.50;97718.59;107806;1272;34694;-74
2022/03/10 03:51:31;;;;;;;19.60;13.20;;;;;;;-2.40;86.45;97721.08;107807;1273;39865;-74
2022/03/10 03:54:02;;;;;;;20.30;13.10;;;;;;;-2.44;86.18;97720.58;107819;1273;32657;-74
2022/03/10 03:56:34;;;;;;;19.20;13.20;;;;;;;-2.49;86.03;97728.27;107825;1273;33817;-74
2022/03/10 03:59:04;;;;;;;24.40;13.50;;;;;;;-2.54;85.85;97731.65;107846;1273;32719;-74
2022/03/10 04:01:35;;;;;;;18.10;12.20;;;;;;;-2.58;85.91;97733.29;107815;1273;42772;-74
2022/03/10 04:04:06;;;;;;;21.80;13.50;;;;;;;-2.61;85.89;97736.90;107849;1271;36593;-73
2022/03/10 04:06:37;;;;;;;18.00;12.30;;;;;;;-2.63;85.83;97743.17;107837;1273;36614;-73
2022/03/10 04:09:08;;;;;;;16.90;12.60;;;;;;;-2.64;85.82;97750.39;107830;1273;42391;-74
2022/03/10 04:11:39;;;;;;;17.90;12.20;;;;;;;-2.64;85.82;97754.83;107822;1273;30153;-74
2022/03/10 04:14:11;;;;;;;18.50;12.10;;;;;;;-2.65;85.86;97754.28;107824;1273;43374;-74
2022/03/10 04:16:42;;;;;;;18.90;12.90;;;;;;;-2.66;85.66;97755.45;107774;1272;48649;-74
2022/03/10 04:19:13;;;;;;;19.80;12.90;;;;;;;-2.66;85.56;97762.01;107792;1273;44726;-74
2022/03/10 04:21:44;;;;;;;20.10;12.80;;;;;;;-2.66;85.68;97765.25;107743;1273;44538;-74
2022/03/10 04:24:15;;;;;;;18.40;13.00;;;;;;;-2.65;85.65;97766.23;107826;1273;33853;-74
2022/03/10 04:26:46;;;;;;;21.20;13.20;;;;;;;-2.65;85.70;97774.40;107730;1274;85391;-75
2022/03/10 04:29:17;;;;;;;18.80;12.80;;;;;;;-2.66;85.74;97775.37;107793;1272;44606;-74
2022/03/10 04:31:48;;;;;;;19.30;12.80;;;;;;;-2.67;85.62;97779.76;107825;1270;43582;-75
2022/03/10 04:34:20;;;;;;;19.00;13.10;;;;;;;-2.68;85.57;97784.16;107809;1273;39848;-74
2022/03/10 04:36:52;;;;;;;16.70;11.20;;;;;;;-2.72;85.24;97789.13;107849;1273;34853;-74
2022/03/10 04:39:23;;;;;;;15.50;10.90;;;;;;;-2.79;85.13;97789.15;107729;1274;36013;-75
2022/03/10 04:41:54;;;;;;;19.30;11.80;;;;;;;-2.81;85.11;97793.38;107793;1273;45272;-75
2022/03/10 04:44:25;;;;;;;20.50;12.50;;;;;;;-2.82;84.87;97795.23;107760;1274;47118;-74
2022/03/10 04:46:56;;;;;;;17.30;10.50;;;;;;;-2.85;84.87;97795.77;107796;1273;45130;-74
2022/03/10 04:49:27;;;;;;;13.30;9.40;;;;;;;-2.90;84.66;97794.38;107859;1274;31715;-74
2022/03/10 04:51:58;;;;;;;17.60;10.90;;;;;;;-2.96;84.45;97794.69;107850;1272;43356;-75
2022/03/10 04:54:29;;;;;;;16.50;11.30;;;;;;;-3.01;84.50;97799.52;107814;1274;46409;-74
2022/03/10 04:57:01;;;;;;;19.40;11.50;;;;;;;-3.04;84.37;97800.30;107739;1273;97819;-74
2022/03/10 04:59:32;;;;;;;15.40;10.80;;;;;;;-3.07;84.45;97804.94;107764;1273;62241;-75
2022/03/10 05:02:03;;;;;;;19.70;11.60;;;;;;;-3.13;84.34;97807.32;107768;1273;42287;-74
2022/03/10 05:04:34;;;;;;;19.90;12.60;;;;;;;-3.20;84.24;97814.66;107800;1273;30111;-74
2022/03/10 05:07:06;;;;;;;17.90;12.00;;;;;;;-3.24;84.24;97816.95;107820;1273;29360;-74
2022/03/10 05:09:37;;;;;;;17.00;11.70;;;;;;;-3.25;84.27;97818.86;107797;1273;41516;-74
2022/03/10 05:12:09;;;;;;;17.50;11.40;;;;;;;-3.28;84.06;97822.41;107765;1274;40455;-74
2022/03/10 05:14:41;;;;;;;17.70;11.70;;;;;;;-3.29;84.36;97821.31;107799;1273;40895;-74
2022/03/10 05:17:12;;;;;;;16.50;11.10;;;;;;;-3.28;84.27;97826.44;107780;1272;39708;-74
2022/03/10 05:19:43;;;;;;;18.10;11.90;;;;;;;-3.27;84.33;97827.73;107670;1273;173552;-74
2022/03/10 05:22:14;;;;;;;15.50;11.20;;;;;;;-3.28;84.31;97832.11;107793;1273;43106;-74
2022/03/10 05:24:47;;;;;;;18.80;12.80;;;;;;;-3.29;84.33;97836.81;107762;1273;53976;-74
2022/03/10 05:27:19;;;;;;;16.50;11.30;;;;;;;-3.28;84.30;97844.55;107779;1272;37988;-74
2022/03/10 05:29:50;;;;;;;18.30;12.20;;;;;;;-3.28;84.42;97842.45;107838;1273;33509;-74
2022/03/10 05:32:22;;;;;;;18.20;12.80;;;;;;;-3.30;84.22;97845.64;107828;1273;28632;-74
2022/03/10 05:34:54;;;;;;;18.40;12.50;;;;;;;-3.30;84.31;97853.21;107727;1274;44685;-74
2022/03/10 05:37:26;;;;;;;20.20;11.90;;;;;;;-3.32;84.16;97853.83;107821;1274;43170;-75
2022/03/10 05:39:59;;;;;;;20.80;13.40;;;;;;;-3.36;84.01;97860.80;107650;1273;256736;-74
2022/03/10 05:42:31;;;;;;;17.30;12.20;;;;;;;-3.39;83.87;97866.31;107738;1273;45315;-75
2022/03/10 05:45:02;;;;;;;20.20;12.90;;;;;;;-3.41;83.86;97871.85;107768;1274;39034;-74
2022/03/10 05:47:34;;;;;;;19.70;12.50;;;;;;;-3.43;83.79;97872.17;107803;1273;40903;-74
2022/03/10 05:50:07;;;;;;;19.70;12.70;;;;;;;-3.43;83.56;97874.19;107811;1273;30322;-75
2022/03/10 05:52:38;;;;;;;16.90;11.70;;;;;;;-3.48;83.53;97878.46;107831;1273;30853;-74
2022/03/10 05:55:10;;;;;;;16.80;12.30;;;;;;;-3.51;83.56;97881.23;107783;1273;30235;-74
2022/03/10 05:57:42;;;;;;;18.10;12.10;;;;;;;-3.50;83.71;97885.72;107761;1273;47057;-74
2022/03/10 06:00:15;;;;;;;19.90;13.20;;;;;;;-3.47;83.69;97883.33;106335;1273;1997973;-74
2022/03/10 06:02:46;;;;;;;18.20;12.60;;;;;;;-3.44;83.59;97888.54;107833;1274;45910;-74
2022/03/10 06:05:17;;;;;;;18.70;12.80;;;;;;;-3.40;83.32;97893.02;107806;1273;29277;-74
2022/03/10 06:07:49;;;;;;;23.50;14.60;;;;;;;-3.44;83.28;97891.89;107784;1273;42748;-74
2022/03/10 06:10:22;;;;;;;24.10;14.90;;;;;;;-3.49;82.92;97899.68;107753;1273;43092;-74
2022/03/10 06:12:53;;;;;;;19.40;14.20;;;;;;;-3.51;83.04;97903.50;107796;1273;31288;-74
2022/03/10 06:15:24;;;;;;;22.70;15.40;;;;;;;-3.50;83.17;97907.66;107746;1273;36128;-74
2022/03/10 06:17:55;;;;;;;19.70;15.40;;;;;;;-3.47;83.03;97912.36;107808;1274;30970;-74
2022/03/10 06:20:30;;;;;;;20.30;14.20;;;;;;;-3.45;82.83;97913.23;107820;1273;44851;-75
2022/03/10 06:23:01;;;;;;;19.90;14.40;;;;;;;-3.36;82.58;97912.84;107784;1273;32482;-75
2022/03/10 06:25:32;;;;;;;16.50;11.20;;;;;;;-3.39;82.07;97919.48;107751;1273;85424;-74
2022/03/10 06:28:04;;;;;;;18.60;12.20;;;;;;;-3.48;81.55;97927.90;107746;1273;35840;-74
2022/03/10 06:30:36;;;;;;;16.30;11.10;;;;;;;-3.53;81.29;97936.50;107781;1273;52983;-74
2022/03/10 06:33:07;;;;;;;17.70;11.60;;;;;;;-3.46;81.35;97941.65;107836;1273;33966;-74
2022/03/10 06:35:38;;;;;;;19.50;11.20;;;;;;;-3.41;81.19;97946.48;107811;1272;39854;-75
2022/03/10 06:38:09;;;;;;;14.20;9.90;;;;;;;-3.37;80.89;97948.98;107787;1273;38612;-75
2022/03/10 06:40:40;;;;;;;17.60;10.90;;;;;;;-3.33;80.72;97946.83;107793;1273;44811;-75
2022/03/10 06:43:11;;;;;;;15.10;10.50;;;;;;;-3.25;80.74;97950.72;107762;1273;43679;-75
2022/03/10 06:45:42;;;;;;;15.00;9.70;;;;;;;-3.11;80.53;97954.33;107824;1273;40835;-74
2022/03/10 06:48:13;;;;;;;17.10;12.40;;;;;;;-2.52;80.70;97956.60;107814;1273;40456;-75
2022/03/10 06:50:44;;;;;;;297.40;97.60;;;;;;;-1.70;81.09;97960.52;107784;1273;40742;-74
2022/03/10 06:53:15;;;;;;;38.90;23.00;;;;;;;-0.03;80.66;97959.38;107814;1272;34999;-75
2022/03/10 06:55:47;;;;;;;62.60;36.00;;;;;;;1.55;79.30;97956.23;107871;1272;35506;-75
2022/03/10 06:58:18;;;;;;;19.10;13.20;;;;;;;3.01;77.35;97954.70;107799;1273;43885;-74
2022/03/10 07:00:49;;;;;;;14.30;11.40;;;;;;;4.52;75.36;97955.23;107825;1272;41547;-74
2022/03/10 07:03:21;;;;;;;14.30;11.10;;;;;;;5.81;73.16;97956.05;107779;1273;48269;-75
2022/03/10 07:05:53;;;;;;;11.80;9.60;;;;;;;6.91;70.33;97960.38;107746;1273;41851;-74
2022/03/10 07:08:23;;;;;;;9.40;7.20;;;;;;;7.29;66.18;97958.89;107778;1273;34562;-74
2022/03/10 07:10:54;;;;;;;10.40;8.90;;;;;;;6.99;61.38;97967.88;107811;1273;45931;-75
2022/03/10 07:13:26;;;;;;;11.90;9.60;;;;;;;7.29;59.74;97979.66;107764;1273;40086;-75
2022/03/10 07:15:57;;;;;;;12.50;10.40;;;;;;;7.71;59.89;97970.73;107819;1273;42083;-74
2022/03/10 07:18:27;;;;;;;10.50;8.50;;;;;;;7.76;58.84;97978.14;107834;1273;33203;-74
2022/03/10 07:20:59;;;;;;;9.80;8.40;;;;;;;6.52;48.12;97983.88;107826;1273;34501;-75
2022/03/10 07:23:30;;;;;;;13.70;10.60;;;;;;;4.68;47.30;97988.92;107776;1272;39977;-74
2022/03/10 07:26:01;;;;;;;11.10;8.90;;;;;;;4.55;50.24;97991.93;107789;1273;35619;-75
2022/03/10 07:28:38;;;;;;;14.00;11.20;;;;;;;3.97;47.88;97994.96;107855;1273;29102;-75
2022/03/10 07:31:10;;;;;;;12.70;9.40;;;;;;;3.37;51.46;98002.97;107790;1273;49647;-75
2022/03/10 07:33:41;;;;;;;11.10;8.30;;;;;;;2.95;51.06;98002.61;107824;1273;39348;-75
2022/03/10 07:36:12;;;;;;;12.40;8.70;;;;;;;1.57;50.18;98008.70;107835;1273;33860;-74
2022/03/10 07:38:43;;;;;;;11.40;8.40;;;;;;;0.35;53.02;98012.45;107835;1273;39155;-74
2022/03/10 07:41:14;;;;;;;10.90;7.80;;;;;;;0.59;53.76;98011.09;107764;1273;47619;-74
2022/03/10 07:43:45;;;;;;;10.10;6.90;;;;;;;-0.06;52.80;98021.91;107821;1273;79193;-74
2022/03/10 07:46:16;;;;;;;12.30;8.70;;;;;;;-0.83;54.90;98025.31;107830;1273;34245;-74
2022/03/10 07:48:47;;;;;;;12.20;8.20;;;;;;;-0.87;56.60;98029.25;107707;1273;130887;-74
2022/03/10 07:51:18;;;;;;;13.20;8.20;;;;;;;-0.88;56.37;98029.02;107782;1273;31843;-74
2022/03/10 07:53:49;;;;;;;13.40;7.80;;;;;;;-0.96;56.16;98030.56;107801;1273;40682;-74
2022/03/10 07:56:20;;;;;;;13.30;7.10;;;;;;;-1.17;56.18;98035.39;107829;1273;42483;-74
2022/03/10 07:58:51;;;;;;;9.30;5.70;;;;;;;-1.67;55.62;98033.36;107842;1273;28510;-74
2022/03/10 08:01:22;;;;;;;10.60;8.10;;;;;;;-1.61;57.10;98035.28;107764;1273;72787;-74
2022/03/10 08:03:53;;;;;;;8.80;6.30;;;;;;;-0.17;57.53;98034.64;107794;1273;44379;-74
2022/03/10 08:06:25;;;;;;;12.00;7.10;;;;;;;-0.29;55.75;98031.55;107749;1273;48323;-73
2022/03/10 08:08:56;;;;;;;9.50;6.50;;;;;;;-0.40;56.36;98026.20;107830;1273;42971;-74
2022/03/10 08:11:27;;;;;;;9.30;6.00;;;;;;;0.02;56.67;98025.34;107845;1274;41035;-74
2022/03/10 08:13:58;;;;;;;8.20;7.20;;;;;;;-0.17;55.84;98030.91;107816;1273;45125;-74
2022/03/10 08:16:29;;;;;;;9.40;7.10;;;;;;;1.50;56.56;98024.44;107853;1271;40013;-74
2022/03/10 08:19:00;;;;;;;10.00;7.80;;;;;;;3.61;54.28;98026.27;107819;1273;38609;-74
2022/03/10 08:21:31;;;;;;;8.80;7.70;;;;;;;4.95;52.05;98020.02;107799;1272;43721;-74
2022/03/10 08:24:02;;;;;;;8.60;6.20;;;;;;;5.97;50.56;98013.11;107781;1273;36972;-74
2022/03/10 08:26:36;;;;;;;8.80;5.70;;;;;;;6.21;48.97;98018.39;107795;1273;44275;-74
2022/03/10 08:29:07;;;;;;;6.10;4.70;;;;;;;5.70;48.51;98023.77;107814;1273;39980;-74
2022/03/10 08:31:38;;;;;;;8.10;5.10;;;;;;;5.37;44.98;98026.70;107769;1272;42735;-74
2022/03/10 08:34:09;;;;;;;6.70;4.70;;;;;;;3.21;43.92;98035.43;107827;1273;27789;-74
2022/03/10 08:36:40;;;;;;;7.00;4.80;;;;;;;1.43;46.13;98034.09;107740;1273;95261;-74
2022/03/10 08:39:13;;;;;;;8.90;6.20;;;;;;;1.30;47.73;98037.08;107806;1273;52784;-74
2022/03/10 08:41:44;;;;;;;8.10;5.20;;;;;;;0.60;48.50;98034.23;107812;1273;35510;-74
2022/03/10 08:44:14;;;;;;;10.30;5.80;;;;;;;-0.08;48.63;98040.38;107806;1273;33404;-74
2022/03/10 08:46:46;;;;;;;8.60;5.10;;;;;;;-0.35;50.77;98047.09;107770;1273;41993;-74
2022/03/10 08:49:17;;;;;;;8.80;5.00;;;;;;;-0.21;49.51;98049.51;107826;1273;32070;-73
2022/03/10 08:51:50;;;;;;;10.40;5.40;;;;;;;-0.98;50.49;98052.48;107849;1273;33068;-73
2022/03/10 08:54:21;;;;;;;8.00;5.00;;;;;;;-1.63;52.00;98052.85;107843;1273;30587;-73
2022/03/10 08:56:51;;;;;;;6.40;4.20;;;;;;;-1.90;53.14;98051.42;107820;1273;45473;-73
2022/03/10 08:59:22;;;;;;;6.40;4.00;;;;;;;-1.78;51.68;98049.77;107825;1273;33575;-73
2022/03/10 09:01:53;;;;;;;8.70;4.30;;;;;;;-1.95;50.99;98051.46;107802;1273;42665;-74
2022/03/10 09:04:26;;;;;;;8.20;5.10;;;;;;;-2.06;51.64;98050.40;107794;1273;59468;-73
2022/03/10 09:06:57;;;;;;;7.20;4.50;;;;;;;-1.81;51.29;98052.33;107851;1274;31003;-73
2022/03/10 09:09:28;;;;;;;7.40;4.80;;;;;;;-1.78;51.37;98053.30;107861;1273;30535;-74
2022/03/10 09:12:00;;;;;;;8.30;5.00;;;;;;;-1.19;52.00;98056.05;107932;1273;30634;-73
2022/03/10 09:14:31;;;;;;;8.10;4.60;;;;;;;-1.30;50.97;98053.07;107813;1272;32524;-74
2022/03/10 09:17:02;;;;;;;8.20;5.40;;;;;;;-1.76;51.02;98055.41;107849;1273;29891;-74
2022/03/10 09:19:33;;;;;;;9.20;5.20;;;;;;;-1.98;52.40;98060.29;107821;1273;43937;-73
2022/03/10 09:22:04;;;;;;;10.60;5.60;;;;;;;-1.64;53.01;98059.02;107825;1273;47063;-73
2022/03/10 09:24:35;;;;;;;10.50;6.20;;;;;;;-1.25;53.59;98059.29;107862;1273;40599;-74
2022/03/10 09:27:07;;;;;;;11.70;5.90;;;;;;;-1.11;54.23;98056.67;107826;1272;42433;-73
2022/03/10 09:29:38;;;;;;;9.20;5.60;;;;;;;-0.70;53.55;98056.95;107820;1273;38632;-74
2022/03/10 09:32:09;;;;;;;7.50;5.30;;;;;;;-0.55;53.14;98061.59;107811;1273;43482;-73
2022/03/10 09:34:40;;;;;;;7.10;4.90;;;;;;;-0.41;52.06;98068.15;107811;1273;42206;-73
2022/03/10 09:37:11;;;;;;;6.50;4.90;;;;;;;-0.36;52.57;98065.71;107795;1273;40011;-73
2022/03/10 09:39:42;;;;;;;9.00;5.10;;;;;;;-0.17;53.33;98065.93;107860;1273;26803;-73
2022/03/10 09:42:17;;;;;;;4.70;2.60;;;;;;;0.14;51.84;98067.80;107820;1273;33718;-73
2022/03/10 09:44:49;;;;;;;8.20;5.00;;;;;;;-0.10;49.68;98068.58;107747;1273;59584;-72
2022/03/10 09:47:20;;;;;;;10.80;6.20;;;;;;;-0.20;51.54;98071.45;107812;1273;43646;-73
2022/03/10 09:49:52;;;;;;;9.90;6.40;;;;;;;0.13;54.36;98073.48;107839;1273;30898;-73
2022/03/10 09:52:25;;;;;;;9.80;6.90;;;;;;;0.74;53.70;98068.79;107822;1273;37656;-73
2022/03/10 09:54:55;;;;;;;7.70;4.60;;;;;;;0.81;52.63;98067.60;107857;1273;30680;-73
2022/03/10 09:57:27;;;;;;;7.70;4.00;;;;;;;0.64;49.57;98076.56;107844;1274;31722;-73
2022/03/10 09:59:59;;;;;;;7.60;4.20;;;;;;;0.19;49.48;98077.65;107840;1273;37795;-73
2022/03/10 10:02:30;;;;;;;9.50;6.10;;;;;;;0.00;49.83;98078.56;107866;1273;32055;-72
2022/03/10 10:05:01;;;;;;;10.40;5.80;;;;;;;0.08;50.87;98075.64;107800;1270;33227;-74
2022/03/10 10:07:32;;;;;;;4.60;3.20;;;;;;;0.32;52.44;98076.84;107806;1273;30903;-73
2022/03/10 10:10:06;;;;;;;8.70;5.50;;;;;;;0.09;49.15;98089.21;107830;1273;36110;-74
2022/03/10 10:12:37;;;;;;;10.10;5.80;;;;;;;-0.22;50.31;98080.92;107813;1274;38420;-74
2022/03/10 10:15:12;;;;;;;9.30;5.50;;;;;;;-0.07;50.75;98088.60;107742;1273;74175;-73
2022/03/10 10:17:43;;;;;;;7.70;4.10;;;;;;;-0.10;49.80;98086.83;107788;1273;39848;-74
2022/03/10 10:20:14;;;;;;;8.50;5.50;;;;;;;-0.36;49.00;98087.04;107789;1273;42327;-73
2022/03/10 10:22:45;;;;;;;9.90;5.40;;;;;;;-0.35;50.44;98087.65;107834;1273;37985;-74
2022/03/10 10:25:23;;;;;;;8.20;5.30;;;;;;;-0.40;49.91;98096.77;107808;1273;39705;-73
2022/03/10 10:27:54;;;;;;;8.50;5.50;;;;;;;-0.80;50.54;98098.80;107810;1273;40336;-74
2022/03/10 10:30:26;;;;;;;10.50;5.80;;;;;;;-1.08;51.00;98104.81;107754;1273;33910;-73
2022/03/10 10:32:57;;;;;;;12.10;5.00;;;;;;;-1.15;51.79;98104.66;107890;1273;31736;-73
2022/03/10 10:35:28;;;;;;;10.80;5.90;;;;;;;-1.09;51.35;98106.96;107843;1273;33076;-74
2022/03/10 10:38:00;;;;;;;9.50;5.30;;;;;;;-1.30;50.43;98108.42;107834;1273;41485;-74
2022/03/10 10:40:33;;;;;;;9.20;6.00;;;;;;;-1.52;50.54;98109.89;107831;1272;41543;-74
2022/03/10 10:43:08;;;;;;;10.50;6.70;;;;;;;-1.55;52.05;98105.40;107816;1273;34927;-74
2022/03/10 10:45:40;;;;;;;8.00;4.90;;;;;;;-1.15;52.75;98107.40;107839;1273;36830;-73
2022/03/10 10:48:12;;;;;;;7.60;3.50;;;;;;;-0.83;52.05;98105.70;107841;1273;38057;-73
2022/03/10 10:50:45;;;;;;;9.90;6.10;;;;;;;-0.94;50.26;98102.75;107913;1273;29732;-73
2022/03/10 10:56:16;;;;;;;12.30;8.70;;;;;;;-0.67;53.07;98107.33;104401;1309;545689;-74
2022/03/10 10:58:49;;;;;;;9.40;6.70;;;;;;;-0.55;53.02;98114.40;107099;1283;38241;-74
2022/03/10 11:01:35;;;;;;;12.20;7.20;;;;;;;-0.52;52.68;98118.91;107571;1277;58689;-74
2022/03/10 11:04:09;;;;;;;10.30;6.30;;;;;;;-0.47;53.00;98121.61;107629;1277;50193;-74
2022/03/10 11:06:40;;;;;;;8.50;6.40;;;;;;;-0.38;53.21;98121.31;107536;1279;42470;-74
2022/03/10 11:09:11;;;;;;;10.60;6.40;;;;;;;-0.32;53.39;98119.22;107485;1274;311005;-74
2022/03/10 11:11:42;;;;;;;11.20;6.60;;;;;;;-0.26;53.74;98118.81;107759;1274;39128;-74
2022/03/10 11:14:13;;;;;;;9.20;6.40;;;;;;;-0.27;53.68;98114.87;107687;1276;36881;-74
2022/03/10 11:16:46;;;;;;;8.70;5.80;;;;;;;-0.26;53.65;98114.37;107731;1274;48199;-74
2022/03/10 11:19:20;;;;;;;9.00;5.50;;;;;;;-0.27;53.82;98111.74;107782;1274;39746;-73
2022/03/10 11:22:12;;;;;;;8.90;5.60;;;;;;;-0.34;52.91;98111.71;107759;1274;32047;-73
2022/03/10 11:25:11;;;;;;;11.20;7.40;;;;;;;-0.62;52.73;98115.80;107750;1274;47940;-74
2022/03/10 11:27:49;;;;;;;9.40;6.50;;;;;;;-0.28;53.44;98117.20;107700;1274;41729;-73
2022/03/10 11:30:23;;;;;;;9.00;5.70;;;;;;;0.09;52.93;98116.05;107762;1274;34711;-73
2022/03/10 11:33:12;;;;;;;7.90;5.70;;;;;;;0.22;52.85;98112.08;107710;1276;38583;-73
2022/03/10 11:35:44;;;;;;;13.40;9.00;;;;;;;0.06;51.93;98114.41;107797;1273;28320;-74
2022/03/10 11:38:16;;;;;;;12.10;8.70;;;;;;;-0.05;52.36;98116.31;107759;1276;30914;-73
2022/03/10 11:40:52;;;;;;;10.60;7.10;;;;;;;0.34;53.47;98118.13;107808;1274;26851;-73
2022/03/10 11:43:32;;;;;;;8.60;5.60;;;;;;;0.46;52.37;98114.47;107800;1274;158085;-74
2022/03/10 11:46:20;;;;;;;5.90;4.00;;;;;;;0.11;51.44;98115.58;107765;1274;37612;-74